Cleveland, Minnesota
Current Conditions -  °F | °C
As of 11:55 PM on Thursday 27 Nov 2014 (Local Time) from KMKT Reporting Station
Overcast Overcast  
Wind Chill: -8°   Ceiling: 5000
Heat Index:   Visibility: 10mi
Dew Point:   Wind: 15mph
Humidity: 73%   Direction: 130°SE
Pressure: 30.19"   Gusts: NA
Location:  44.33°N, 93.84°W
Report Text: KMKT 280555Z AUTO 13013KT 10SM SCT024 OVC050 M13/M17 A3019 RMK AO1 11130 21180 411301230 57030
Loading
Personal Weather Stations






























Interactive Weather Map New forecast layout! Learn more

10-Day Weather Forecast

Advertisements
Track Severe Weather on mobile